Time;durP1;ratioP1;P1;durP2;ratioP2;P2;SDS_P1;SDS_P2;PMS_P1;PMS_P2;Temp;Humidity;BMP_temperature;BMP_pressure;BME280_temperature;BME280_humidity;BME280_pressure;Samples;Min_cycle;Max_cycle;Signal;HPM_P1;HPM_P2
2021/07/12 00:00:23;;;;;;;3.40;2.70;;;14.80;99.90;;;;;;5061362;28;20765;-93
2021/07/12 00:02:51;;;;;;;4.10;3.30;;;14.70;99.90;;;;;;5068097;28;21189;-94
2021/07/12 00:05:19;;;;;;;5.63;2.97;;;14.70;99.90;;;;;;5060772;28;20636;-93
2021/07/12 00:07:46;;;;;;;3.10;2.80;;;14.60;99.90;;;;;;5047108;28;20636;-93
2021/07/12 00:10:16;;;;;;;4.07;3.47;;;14.70;99.90;;;;;;5068449;28;20649;-93
2021/07/12 00:12:44;;;;;;;3.90;3.53;;;14.70;99.90;;;;;;5069523;28;20621;-93
2021/07/12 00:15:13;;;;;;;3.67;3.10;;;14.70;99.90;;;;;;5068294;28;21011;-93
2021/07/12 00:17:42;;;;;;;3.30;2.70;;;14.60;99.90;;;;;;5049788;28;20621;-93
2021/07/12 00:20:11;;;;;;;3.70;3.17;;;14.70;99.90;;;;;;5069529;28;21335;-92
2021/07/12 00:22:38;;;;;;;3.17;2.87;;;14.60;99.90;;;;;;5051170;28;20661;-93
2021/07/12 00:25:07;;;;;;;5.40;2.93;;;14.60;99.90;;;;;;5049951;28;20652;-92
2021/07/12 00:27:34;;;;;;;2.93;2.73;;;14.50;99.90;;;;;;5068110;28;21119;-94
2021/07/12 00:30:02;;;;;;;4.87;3.13;;;14.50;99.90;;;;;;5069450;28;20661;-93
2021/07/12 00:32:30;;;;;;;4.10;3.60;;;14.50;99.90;;;;;;5061131;28;20631;-92
2021/07/12 00:34:58;;;;;;;5.30;3.43;;;14.40;99.90;;;;;;5065908;28;20908;-94
2021/07/12 00:37:25;;;;;;;4.07;3.60;;;14.50;99.90;;;;;;5065521;28;20640;-93
2021/07/12 00:39:52;;;;;;;3.97;3.43;;;14.40;99.90;;;;;;5064791;28;20648;-92
2021/07/12 00:42:19;;;;;;;3.60;3.30;;;14.40;99.90;;;;;;5065130;28;20653;-92
2021/07/12 00:44:46;;;;;;;3.57;3.27;;;14.40;99.90;;;;;;5062817;28;20618;-93
2021/07/12 00:47:13;;;;;;;4.20;3.80;;;14.30;99.90;;;;;;5066633;28;20633;-93
2021/07/12 00:49:40;;;;;;;3.63;3.30;;;14.30;99.90;;;;;;5065992;28;20698;-93
2021/07/12 00:52:08;;;;;;;4.50;3.67;;;14.20;99.90;;;;;;5067706;28;20620;-93
2021/07/12 00:54:36;;;;;;;3.70;2.80;;;14.30;99.90;;;;;;5066460;28;21277;-93
2021/07/12 00:57:05;;;;;;;4.43;3.77;;;14.30;99.90;;;;;;5066282;28;20635;-92
2021/07/12 00:59:33;;;;;;;5.70;4.07;;;14.30;99.90;;;;;;5044990;28;20646;-92
2021/07/12 01:02:00;;;;;;;3.47;3.17;;;14.10;99.90;;;;;;5065314;28;20983;-92
2021/07/12 01:04:29;;;;;;;5.47;3.77;;;14.10;99.90;;;;;;5067516;28;21258;-92
2021/07/12 01:06:56;;;;;;;5.13;4.47;;;14.10;99.90;;;;;;5064982;28;20629;-93
2021/07/12 01:09:25;;;;;;;4.20;3.60;;;14.10;99.90;;;;;;5065057;28;21018;-91
2021/07/12 01:11:58;;;;;;;5.57;3.40;;;14.10;99.90;;;;;;5066356;28;21198;-93
2021/07/12 01:14:36;;;;;;;3.07;2.87;;;14.10;99.90;;;;;;5066178;28;20648;-93
2021/07/12 01:17:07;;;;;;;3.83;3.53;;;14.00;99.90;;;;;;5063768;28;20632;-93
2021/07/12 01:19:53;;;;;;;4.80;3.00;;;14.00;99.90;;;;;;5047951;28;20710;-92
2021/07/12 01:23:00;;;;;;;5.17;3.40;;;14.00;99.90;;;;;;5061623;28;20684;-92
2021/07/12 01:26:09;;;;;;;3.90;3.00;;;14.00;99.90;;;;;;5065171;28;21206;-92
2021/07/12 01:29:17;;;;;;;3.67;3.33;;;14.00;99.90;;;;;;5065215;28;21174;-92
2021/07/12 01:32:03;;;;;;;3.77;3.47;;;14.00;99.90;;;;;;5063333;28;20613;-92
2021/07/12 01:34:40;;;;;;;4.60;3.30;;;14.00;99.90;;;;;;5065671;28;21255;-93
2021/07/12 01:37:16;;;;;;;3.40;3.20;;;13.90;99.90;;;;;;5065655;28;20965;-92
2021/07/12 01:39:46;;;;;;;5.77;3.60;;;13.90;99.90;;;;;;5044313;28;20726;-93
2021/07/12 01:42:20;;;;;;;4.43;3.40;;;13.90;99.90;;;;;;5063170;28;21338;-92
2021/07/12 01:44:57;;;;;;;4.03;3.63;;;14.00;99.90;;;;;;5052254;28;20637;-92
2021/07/12 01:47:33;;;;;;;6.20;3.10;;;13.90;99.90;;;;;;5066431;28;20974;-92
2021/07/12 01:50:05;;;;;;;3.90;3.50;;;13.90;99.90;;;;;;5068320;28;20652;-93
2021/07/12 01:52:41;;;;;;;4.90;3.50;;;13.80;99.90;;;;;;5070004;28;20632;-92
2021/07/12 01:55:16;;;;;;;3.53;3.23;;;13.80;99.90;;;;;;5066540;28;20983;-93
2021/07/12 01:57:50;;;;;;;6.10;3.60;;;13.90;99.90;;;;;;5067087;28;20694;-92
2021/07/12 02:00:20;;;;;;;5.37;3.30;;;13.80;99.90;;;;;;5065447;28;20655;-93
2021/07/12 02:02:50;;;;;;;3.93;3.63;;;13.70;99.90;;;;;;5069083;28;21229;-93
2021/07/12 02:05:21;;;;;;;3.80;2.90;;;13.80;99.90;;;;;;5068763;28;20636;-93
2021/07/12 02:07:50;;;;;;;3.83;3.40;;;13.70;99.90;;;;;;5070899;28;20633;-92
2021/07/12 02:10:19;;;;;;;3.10;2.80;;;13.70;99.90;;;;;;5071413;28;20656;-92
2021/07/12 02:12:50;;;;;;;3.70;3.00;;;13.70;99.90;;;;;;5069780;28;20632;-93
2021/07/12 02:15:18;;;;;;;3.10;2.80;;;13.70;99.90;;;;;;5068314;28;20633;-93
2021/07/12 02:17:47;;;;;;;4.80;3.33;;;13.70;99.90;;;;;;5063083;28;20636;-93
2021/07/12 02:20:17;;;;;;;4.30;3.10;;;13.60;99.90;;;;;;5069531;28;20702;-93
2021/07/12 02:22:47;;;;;;;6.20;3.63;;;13.60;99.90;;;;;;5046847;28;20653;-92
2021/07/12 02:25:16;;;;;;;4.97;4.60;;;13.70;99.90;;;;;;5050323;28;20687;-93
2021/07/12 02:27:45;;;;;;;6.90;6.07;;;13.60;99.90;;;;;;5065391;28;20625;-92
2021/07/12 02:30:13;;;;;;;7.07;5.50;;;13.60;99.90;;;;;;5064328;28;20684;-93
2021/07/12 02:32:41;;;;;;;4.67;4.27;;;13.60;99.90;;;;;;5068659;28;20656;-93
2021/07/12 02:35:10;;;;;;;4.47;4.07;;;13.60;99.90;;;;;;5066884;28;20631;-92
2021/07/12 02:37:39;;;;;;;11.33;3.83;;;13.60;99.90;;;;;;5068052;28;21216;-92
2021/07/12 02:40:12;;;;;;;5.27;3.60;;;13.60;99.90;;;;;;5067647;28;20666;-93
2021/07/12 02:42:41;;;;;;;3.80;3.30;;;13.60;99.90;;;;;;5066167;28;20632;-93
2021/07/12 02:45:09;;;;;;;3.23;3.03;;;13.60;99.90;;;;;;5051258;28;20628;-92
2021/07/12 02:47:37;;;;;;;5.73;3.20;;;13.60;99.90;;;;;;5067361;28;20633;-93
2021/07/12 02:50:05;;;;;;;3.23;2.93;;;13.60;99.90;;;;;;5048307;28;20687;-92
2021/07/12 02:52:41;;;;;;;5.90;3.20;;;13.50;99.90;;;;;;5069341;28;20639;-93
2021/07/12 02:55:10;;;;;;;3.30;3.10;;;13.50;99.90;;;;;;5066794;28;21194;-93
2021/07/12 02:57:37;;;;;;;4.23;3.43;;;13.50;99.90;;;;;;5066359;28;20656;-93
2021/07/12 03:00:06;;;;;;;2.90;2.70;;;13.40;99.90;;;;;;5062715;28;21005;-93
2021/07/12 03:02:33;;;;;;;3.40;3.10;;;13.40;99.90;;;;;;5064696;28;20964;-93
2021/07/12 03:05:00;;;;;;;2.90;2.70;;;13.40;99.90;;;;;;5068921;28;20640;-93
2021/07/12 03:07:30;;;;;;;3.23;2.73;;;13.50;99.90;;;;;;5069035;28;20700;-92
2021/07/12 03:10:01;;;;;;;2.90;2.67;;;13.40;99.90;;;;;;5067671;28;20743;-93
2021/07/12 03:12:36;;;;;;;5.17;3.17;;;13.40;99.90;;;;;;5067873;28;20635;-93
2021/07/12 03:15:08;;;;;;;3.20;3.00;;;13.40;99.90;;;;;;5067985;28;20733;-93
2021/07/12 03:17:39;;;;;;;4.60;3.10;;;13.30;99.90;;;;;;5050018;28;21094;-93
2021/07/12 03:20:08;;;;;;;3.20;3.00;;;13.30;99.90;;;;;;5067302;28;20657;-93
2021/07/12 03:22:37;;;;;;;3.50;3.20;;;13.40;99.90;;;;;;5065568;28;20630;-92
2021/07/12 03:25:06;;;;;;;5.43;2.77;;;13.30;99.90;;;;;;5063983;28;20629;-91
2021/07/12 03:27:37;;;;;;;2.80;2.60;;;13.40;99.90;;;;;;5065114;28;20640;-92
2021/07/12 03:30:06;;;;;;;3.83;3.10;;;13.40;99.90;;;;;;5067184;28;20734;-93
2021/07/12 03:32:34;;;;;;;6.00;3.33;;;13.40;99.90;;;;;;5067235;28;20637;-93
2021/07/12 03:35:02;;;;;;;4.70;3.57;;;13.40;99.90;;;;;;5064027;28;20629;-93
2021/07/12 03:37:30;;;;;;;3.60;2.47;;;13.40;99.90;;;;;;5061851;28;20636;-92
2021/07/12 03:39:58;;;;;;;3.37;3.07;;;13.30;99.90;;;;;;5047526;28;20637;-92
2021/07/12 03:42:25;;;;;;;4.53;3.10;;;13.30;99.90;;;;;;5066044;28;20635;-92
2021/07/12 03:44:54;;;;;;;3.50;3.30;;;13.20;99.90;;;;;;5065952;28;20672;-92
2021/07/12 03:47:26;;;;;;;3.07;2.80;;;13.30;99.90;;;;;;5063227;28;21190;-92
2021/07/12 03:49:53;;;;;;;4.23;3.20;;;13.30;99.90;;;;;;5061440;28;20671;-92
2021/07/12 03:52:22;;;;;;;4.67;3.17;;;13.30;99.90;;;;;;5045678;28;20617;-93
2021/07/12 03:54:49;;;;;;;3.03;2.83;;;13.30;99.90;;;;;;5065975;28;20629;-92
2021/07/12 03:57:15;;;;;;;3.80;3.30;;;13.30;99.90;;;;;;5064095;28;20628;-92
2021/07/12 03:59:42;;;;;;;3.40;3.10;;;13.30;99.90;;;;;;5062321;28;20653;-93
2021/07/12 04:02:11;;;;;;;3.70;2.93;;;13.30;99.90;;;;;;5066834;28;20625;-92
2021/07/12 04:04:37;;;;;;;4.23;3.40;;;13.30;99.90;;;;;;5065185;28;20665;-92
2021/07/12 04:07:04;;;;;;;3.67;3.37;;;13.20;99.90;;;;;;5065955;28;20640;-94
2021/07/12 04:09:31;;;;;;;4.27;3.20;;;13.30;99.90;;;;;;5046574;28;20661;-94
2021/07/12 04:11:58;;;;;;;5.27;4.27;;;13.40;99.90;;;;;;5072845;28;20621;-93
2021/07/12 04:14:25;;;;;;;4.07;3.40;;;13.30;99.90;;;;;;5067420;28;21167;-93
2021/07/12 04:16:52;;;;;;;4.87;4.47;;;13.30;99.90;;;;;;5062318;28;20629;-93
2021/07/12 04:19:20;;;;;;;4.40;3.50;;;13.30;99.90;;;;;;5062863;28;21218;-94
2021/07/12 04:21:46;;;;;;;6.20;4.10;;;13.20;99.90;;;;;;5064237;28;21031;-93
2021/07/12 04:24:13;;;;;;;4.80;4.33;;;13.30;99.90;;;;;;5062977;28;20679;-91
2021/07/12 04:26:40;;;;;;;4.40;4.03;;;13.40;99.90;;;;;;5045043;28;20629;-93
2021/07/12 04:29:07;;;;;;;5.70;4.83;;;13.40;99.90;;;;;;5048405;28;20621;-93
2021/07/12 04:31:34;;;;;;;4.40;3.70;;;13.50;99.90;;;;;;5066397;28;20716;-93
2021/07/12 04:34:02;;;;;;;6.03;4.10;;;13.40;99.90;;;;;;5066917;28;20628;-93
2021/07/12 04:36:31;;;;;;;8.53;5.10;;;13.50;99.90;;;;;;5065971;28;20624;-93
2021/07/12 04:39:00;;;;;;;6.43;3.50;;;13.50;99.90;;;;;;5064794;28;20698;-94
2021/07/12 04:41:27;;;;;;;6.30;4.30;;;13.50;99.90;;;;;;5064815;28;20700;-92
2021/07/12 04:43:54;;;;;;;6.30;3.93;;;13.50;99.90;;;;;;5063237;28;20661;-93
2021/07/12 04:46:20;;;;;;;5.57;4.17;;;13.50;99.90;;;;;;5065423;28;20995;-94
2021/07/12 04:48:47;;;;;;;7.03;4.43;;;13.60;99.90;;;;;;5046615;28;21004;-93
2021/07/12 04:51:15;;;;;;;7.03;4.17;;;13.60;99.90;;;;;;5046235;28;20663;-93
2021/07/12 04:53:43;;;;;;;4.60;4.20;;;13.70;99.90;;;;;;5064786;28;21149;-93
2021/07/12 04:56:10;;;;;;;4.73;4.33;;;13.70;99.90;;;;;;5057713;28;20621;-93
2021/07/12 04:58:43;;;;;;;4.77;4.27;;;13.80;99.90;;;;;;5062105;28;20648;-93
2021/07/12 05:01:09;;;;;;;5.00;4.60;;;13.80;99.90;;;;;;5062689;28;20645;-93
2021/07/12 05:03:37;;;;;;;6.60;5.93;;;13.90;99.90;;;;;;5062626;28;21057;-93
2021/07/12 05:06:04;;;;;;;4.67;4.37;;;14.00;99.90;;;;;;5064583;28;20636;-93
2021/07/12 05:08:31;;;;;;;5.30;4.80;;;14.00;99.90;;;;;;5063054;28;20656;-94
2021/07/12 05:10:59;;;;;;;5.10;4.60;;;14.10;99.90;;;;;;5062861;28;21156;-93
2021/07/12 05:13:27;;;;;;;6.20;5.60;;;14.10;99.90;;;;;;5064017;28;20948;-92
2021/07/12 05:15:54;;;;;;;5.40;4.90;;;14.10;99.90;;;;;;5060766;28;20637;-93
2021/07/12 05:18:21;;;;;;;7.17;6.10;;;14.20;99.90;;;;;;5067367;28;20620;-92
2021/07/12 05:20:48;;;;;;;7.27;6.57;;;14.20;99.90;;;;;;5069614;28;20652;-93
2021/07/12 05:23:15;;;;;;;6.03;5.53;;;14.30;99.90;;;;;;5066641;28;20613;-93
2021/07/12 05:25:42;;;;;;;10.30;4.47;;;14.50;99.90;;;;;;5067480;28;20631;-93
2021/07/12 05:28:10;;;;;;;7.57;4.93;;;14.40;99.90;;;;;;5066494;28;20636;-94
2021/07/12 05:30:37;;;;;;;4.70;4.40;;;14.50;99.90;;;;;;5068902;28;20641;-93
2021/07/12 05:33:05;;;;;;;4.37;3.97;;;14.60;99.90;;;;;;5067071;28;20641;-92
2021/07/12 05:35:32;;;;;;;4.73;4.33;;;14.70;99.90;;;;;;5068301;28;21082;-93
2021/07/12 05:37:59;;;;;;;5.77;4.77;;;14.80;99.90;;;;;;5067566;28;20629;-92
2021/07/12 05:40:26;;;;;;;5.17;4.17;;;14.90;99.90;;;;;;5063935;28;21160;-93
2021/07/12 05:42:53;;;;;;;5.30;4.47;;;14.90;99.90;;;;;;5050229;28;20640;-93
2021/07/12 05:45:21;;;;;;;6.40;4.43;;;15.00;99.90;;;;;;5064308;28;20668;-93
2021/07/12 05:47:49;;;;;;;4.63;4.20;;;15.20;99.90;;;;;;5065415;28;20656;-93
2021/07/12 05:50:16;;;;;;;5.10;4.20;;;15.20;99.90;;;;;;5065351;28;20703;-88
2021/07/12 05:52:43;;;;;;;4.20;3.90;;;15.40;99.90;;;;;;5066782;28;20976;-88
2021/07/12 05:55:11;;;;;;;8.80;3.73;;;15.50;99.90;;;;;;5041410;28;21222;-88
2021/07/12 05:57:38;;;;;;;4.63;4.20;;;15.60;99.90;;;;;;5066014;28;20640;-88
2021/07/12 06:00:08;;;;;;;6.03;3.80;;;15.60;99.90;;;;;;5065547;28;20632;-88
2021/07/12 06:02:36;;;;;;;10.40;4.10;;;15.70;99.90;;;;;;5066845;28;21195;-88
2021/07/12 06:05:04;;;;;;;4.40;4.00;;;15.80;99.90;;;;;;5066541;28;20672;-88
2021/07/12 06:07:31;;;;;;;4.27;3.87;;;16.00;99.90;;;;;;5066114;28;20633;-88
2021/07/12 06:09:58;;;;;;;4.40;4.00;;;16.10;99.90;;;;;;5066100;28;21171;-88
2021/07/12 06:12:24;;;;;;;4.70;4.30;;;16.20;99.90;;;;;;5064242;28;21211;-88
2021/07/12 06:14:51;;;;;;;5.87;3.77;;;16.30;99.90;;;;;;5065900;28;20655;-88
2021/07/12 06:17:19;;;;;;;4.70;3.47;;;16.30;99.90;;;;;;5065785;28;20619;-88
2021/07/12 06:19:47;;;;;;;3.73;3.33;;;16.50;99.90;;;;;;5060017;28;20621;-88
2021/07/12 06:22:14;;;;;;;3.83;3.53;;;16.50;99.90;;;;;;5047217;28;20613;-88
2021/07/12 06:24:41;;;;;;;5.83;3.70;;;16.50;99.90;;;;;;5062355;28;20680;-88
2021/07/12 06:27:08;;;;;;;6.27;3.70;;;16.70;99.90;;;;;;5066225;28;20995;-88
2021/07/12 06:29:34;;;;;;;3.83;3.53;;;16.70;99.90;;;;;;5058263;28;20640;-88
2021/07/12 06:32:01;;;;;;;3.17;2.97;;;17.00;99.90;;;;;;5062878;28;20629;-88
2021/07/12 06:34:28;;;;;;;5.03;3.97;;;17.00;99.90;;;;;;5066673;28;20656;-87
2021/07/12 06:36:56;;;;;;;4.13;3.27;;;17.10;99.90;;;;;;5066580;28;20637;-88
2021/07/12 06:39:23;;;;;;;3.50;3.20;;;17.30;99.90;;;;;;5066555;28;20636;-88
2021/07/12 06:41:50;;;;;;;4.17;3.20;;;17.60;99.90;;;;;;5068898;28;21167;-87
2021/07/12 06:44:18;;;;;;;5.20;3.10;;;17.70;99.90;;;;;;5066372;28;20676;-88
2021/07/12 06:46:46;;;;;;;4.30;2.93;;;17.80;99.90;;;;;;5066188;28;20625;-88
2021/07/12 06:49:13;;;;;;;4.73;3.00;;;17.90;99.90;;;;;;5067486;28;20629;-88
2021/07/12 06:51:40;;;;;;;2.67;2.47;;;18.10;99.90;;;;;;5067454;28;20620;-88
2021/07/12 06:54:08;;;;;;;3.03;2.50;;;18.20;99.90;;;;;;5063637;28;20648;-88
2021/07/12 06:56:35;;;;;;;3.33;2.50;;;18.30;99.90;;;;;;5067007;28;20988;-88
2021/07/12 06:59:03;;;;;;;3.13;2.50;;;18.50;99.90;;;;;;5066656;28;20724;-87
2021/07/12 07:01:30;;;;;;;3.73;2.83;;;18.70;99.90;;;;;;5064940;28;20628;-89
2021/07/12 07:03:56;;;;;;;2.93;2.23;;;18.80;99.90;;;;;;5068039;28;20664;-87
2021/07/12 07:06:24;;;;;;;4.77;2.90;;;18.90;99.90;;;;;;5065194;28;20639;-87
2021/07/12 07:08:51;;;;;;;3.23;2.80;;;19.00;99.90;;;;;;5065090;28;20624;-87
2021/07/12 07:11:19;;;;;;;2.63;2.43;;;19.00;99.90;;;;;;5063787;28;20632;-87
2021/07/12 07:13:46;;;;;;;3.30;2.47;;;19.10;99.90;;;;;;5064091;28;20672;-87
2021/07/12 07:16:14;;;;;;;5.50;2.57;;;19.40;99.90;;;;;;5064195;28;20668;-88
2021/07/12 07:18:41;;;;;;;3.03;2.60;;;19.60;99.90;;;;;;5062194;28;20625;-86
2021/07/12 07:21:08;;;;;;;2.10;1.90;;;19.60;99.90;;;;;;5063483;28;20733;-87
2021/07/12 07:23:35;;;;;;;5.20;2.20;;;19.70;99.90;;;;;;5063963;28;20654;-87
2021/07/12 07:26:02;;;;;;;3.60;2.13;;;19.90;99.90;;;;;;5064372;28;20731;-87
2021/07/12 07:28:30;;;;;;;5.13;2.33;;;20.00;99.90;;;;;;5061670;28;20612;-87
2021/07/12 07:30:56;;;;;;;3.53;2.37;;;20.20;99.90;;;;;;5062948;28;20625;-87
2021/07/12 07:33:26;;;;;;;4.27;2.27;;;20.20;99.90;;;;;;5063753;28;20660;-87
2021/07/12 07:35:53;;;;;;;2.00;1.90;;;20.30;99.90;;;;;;5064979;28;20614;-87
2021/07/12 07:38:19;;;;;;;2.13;1.93;;;20.40;99.90;;;;;;5063418;28;20635;-87
2021/07/12 07:40:46;;;;;;;2.37;2.17;;;20.50;99.90;;;;;;5063281;28;20620;-87
2021/07/12 07:43:13;;;;;;;2.37;2.17;;;20.60;99.90;;;;;;5062906;28;20648;-87
2021/07/12 07:45:42;;;;;;;2.80;1.90;;;20.60;99.90;;;;;;5058133;28;20676;-87
2021/07/12 07:48:09;;;;;;;2.63;1.90;;;20.70;99.90;;;;;;5045649;28;20586;-87
2021/07/12 07:50:39;;;;;;;2.57;1.90;;;20.60;99.90;;;;;;5062043;28;20640;-87
2021/07/12 07:53:07;;;;;;;1.57;1.47;;;20.60;99.90;;;;;;5064310;28;20637;-87
2021/07/12 07:55:34;;;;;;;2.23;1.40;;;20.80;99.90;;;;;;5061348;28;21093;-87
2021/07/12 07:58:01;;;;;;;1.47;1.37;;;21.00;99.90;;;;;;5058558;28;20651;-87
2021/07/12 08:00:29;;;;;;;1.50;1.30;;;21.20;99.90;;;;;;5058017;28;20633;-87
2021/07/12 08:02:58;;;;;;;1.40;1.30;;;21.20;99.90;;;;;;5061248;28;20625;-87
2021/07/12 08:05:25;;;;;;;1.70;1.50;;;21.40;99.90;;;;;;5062749;28;20657;-87
2021/07/12 08:07:56;;;;;;;2.10;1.17;;;21.40;99.90;;;;;;5057708;28;20818;-87
2021/07/12 08:10:23;;;;;;;2.63;1.97;;;21.50;99.90;;;;;;5056656;28;20621;-87
2021/07/12 08:12:54;;;;;;;1.00;1.00;;;21.60;99.90;;;;;;5059827;28;20648;-87
2021/07/12 08:15:21;;;;;;;2.80;1.30;;;21.60;99.90;;;;;;5058551;28;20671;-87
2021/07/12 08:17:50;;;;;;;3.33;1.77;;;21.70;99.90;;;;;;5062425;28;20624;-87
2021/07/12 08:20:19;;;;;;;1.27;1.17;;;21.80;99.90;;;;;;5063248;28;20628;-87
2021/07/12 08:22:49;;;;;;;2.83;1.33;;;21.90;99.90;;;;;;5060317;28;21097;-87
2021/07/12 08:25:16;;;;;;;1.50;1.40;;;22.00;99.90;;;;;;5061235;28;21280;-87
2021/07/12 08:27:43;;;;;;;2.80;1.50;;;22.00;99.90;;;;;;5060198;28;21171;-88
2021/07/12 08:30:11;;;;;;;1.50;1.40;;;22.30;99.90;;;;;;5061339;28;20629;-87
2021/07/12 08:32:39;;;;;;;1.47;1.37;;;22.30;99.90;;;;;;5060551;28;20640;-87
2021/07/12 08:35:08;;;;;;;1.30;1.20;;;22.40;99.90;;;;;;5062193;28;20814;-87
2021/07/12 08:37:36;;;;;;;2.70;1.40;;;22.30;99.90;;;;;;5061044;28;20790;-87
2021/07/12 08:40:04;;;;;;;2.07;1.50;;;22.40;99.90;;;;;;5059566;28;20621;-87
2021/07/12 08:42:31;;;;;;;1.70;1.60;;;22.50;99.90;;;;;;5058280;28;20989;-87
2021/07/12 08:44:58;;;;;;;1.73;1.40;;;22.60;99.90;;;;;;5058658;28;20767;-88
2021/07/12 08:47:25;;;;;;;1.40;1.30;;;22.70;99.90;;;;;;5059339;28;20979;-87
2021/07/12 08:49:52;;;;;;;2.27;1.30;;;22.70;99.90;;;;;;5057617;28;20639;-87
2021/07/12 08:52:19;;;;;;;1.70;1.60;;;22.80;99.90;;;;;;5054684;28;20731;-87
2021/07/12 08:54:47;;;;;;;1.60;1.50;;;22.80;99.90;;;;;;5057270;28;21235;-87
2021/07/12 08:57:14;;;;;;;1.57;1.47;;;22.80;99.90;;;;;;5059452;28;20641;-87
2021/07/12 08:59:42;;;;;;;1.80;1.50;;;22.80;99.90;;;;;;5060464;28;21009;-87
2021/07/12 09:02:10;;;;;;;1.63;1.30;;;23.00;99.90;;;;;;5059958;28;21234;-87
2021/07/12 09:04:39;;;;;;;1.30;1.20;;;23.10;99.90;;;;;;5061223;28;21101;-87
2021/07/12 09:07:08;;;;;;;1.57;1.47;;;23.30;99.90;;;;;;5062019;28;21178;-87
2021/07/12 09:09:35;;;;;;;1.20;1.10;;;23.30;99.90;;;;;;5060693;28;20991;-88
2021/07/12 09:12:15;;;;;;;1.50;1.40;;;23.40;99.90;;;;;;5061332;28;20623;-87
2021/07/12 09:14:42;;;;;;;1.97;1.40;;;23.50;99.90;;;;;;5058172;28;20679;-87
2021/07/12 09:17:10;;;;;;;1.30;1.20;;;23.50;99.90;;;;;;5060900;28;21218;-87
2021/07/12 09:19:38;;;;;;;3.20;1.40;;;23.80;99.90;;;;;;5061114;28;20629;-87
2021/07/12 09:22:06;;;;;;;1.80;1.70;;;23.80;99.90;;;;;;5044028;28;21035;-87
2021/07/12 09:24:39;;;;;;;1.60;1.50;;;23.90;99.90;;;;;;5059613;28;20654;-87
2021/07/12 09:27:23;;;;;;;1.60;1.30;;;24.00;99.90;;;;;;5057739;28;21006;-88
2021/07/12 09:29:52;;;;;;;1.50;1.40;;;24.00;99.90;;;;;;5057416;28;20620;-88
2021/07/12 09:32:20;;;;;;;1.83;1.30;;;24.20;99.90;;;;;;5056285;28;20950;-87
2021/07/12 09:34:48;;;;;;;2.13;1.27;;;24.10;99.90;;;;;;5060076;28;20687;-88
2021/07/12 09:37:17;;;;;;;1.67;1.23;;;24.30;99.90;;;;;;5061244;28;20624;-88
2021/07/12 09:39:45;;;;;;;4.43;1.57;;;24.30;99.90;;;;;;5063183;28;20633;-87
2021/07/12 09:42:17;;;;;;;1.63;1.53;;;24.30;99.90;;;;;;5059737;28;20976;-87
2021/07/12 09:44:45;;;;;;;6.90;1.60;;;24.40;99.90;;;;;;5056281;28;20744;-88
2021/07/12 09:47:15;;;;;;;1.57;1.47;;;24.60;99.90;;;;;;5060647;28;20633;-88
2021/07/12 09:49:42;;;;;;;2.20;1.53;;;24.70;99.90;;;;;;5054142;28;20649;-87
2021/07/12 09:52:11;;;;;;;1.90;1.80;;;24.90;99.90;;;;;;5038826;28;20633;-88
2021/07/12 09:54:40;;;;;;;4.00;1.50;;;24.90;99.90;;;;;;5062313;28;20660;-88
2021/07/12 09:57:10;;;;;;;1.43;1.33;;;25.10;99.90;;;;;;5062985;28;20625;-88
2021/07/12 09:59:56;;;;;;;4.00;1.40;;;25.30;99.90;;;;;;5058163;28;20766;-87
2021/07/12 10:02:25;;;;;;;1.53;1.43;;;25.70;99.90;;;;;;5060153;28;20624;-87
2021/07/12 10:04:57;;;;;;;1.77;1.67;;;25.80;99.90;;;;;;5063969;28;20655;-87
2021/07/12 10:07:23;;;;;;;1.60;1.50;;;25.60;99.90;;;;;;5063486;28;20640;-88
2021/07/12 10:09:51;;;;;;;1.03;1.03;;;25.80;99.90;;;;;;5064328;28;20617;-88
2021/07/12 10:12:18;;;;;;;6.30;2.00;;;26.10;99.90;;;;;;5064301;28;20627;-87
2021/07/12 10:14:46;;;;;;;1.60;1.50;;;26.20;99.90;;;;;;5063843;28;20671;-88
2021/07/12 10:17:14;;;;;;;1.50;1.40;;;26.20;99.90;;;;;;5063356;28;20984;-87
2021/07/12 10:19:43;;;;;;;1.50;1.20;;;26.10;99.90;;;;;;5062677;28;20627;-87
2021/07/12 10:22:11;;;;;;;2.37;1.67;;;26.30;99.90;;;;;;5062021;28;20632;-87
2021/07/12 10:24:40;;;;;;;1.60;1.50;;;26.60;99.90;;;;;;5064546;28;20656;-87
2021/07/12 10:27:08;;;;;;;2.60;1.50;;;26.80;99.90;;;;;;5063815;28;20664;-88
2021/07/12 10:29:37;;;;;;;1.63;1.50;;;26.80;98.70;;;;;;5062819;28;20834;-88
2021/07/12 10:32:13;;;;;;;2.23;1.30;;;26.70;99.90;;;;;;5063523;28;20632;-87
2021/07/12 10:34:43;;;;;;;1.60;1.47;;;26.70;99.90;;;;;;5063781;28;20648;-88
2021/07/12 10:37:18;;;;;;;1.50;1.40;;;26.80;99.90;;;;;;5065041;28;20621;-87
2021/07/12 10:40:05;;;;;;;1.77;1.10;;;26.70;99.90;;;;;;5060988;28;20965;-87
2021/07/12 10:42:51;;;;;;;2.03;1.50;;;26.70;99.90;;;;;;5062032;28;20683;-87
2021/07/12 10:45:19;;;;;;;3.60;1.43;;;26.70;99.90;;;;;;5063236;28;20636;-87
2021/07/12 10:47:50;;;;;;;1.63;1.53;;;26.90;99.90;;;;;;5061513;28;20670;-87
2021/07/12 10:50:43;;;;;;;2.97;1.63;;;27.00;99.90;;;;;;5064758;28;21143;-87
2021/07/12 10:53:34;;;;;;;6.60;1.40;;;26.90;99.80;;;;;;5065363;28;21233;-87
2021/07/12 10:56:06;;;;;;;1.73;1.63;;;27.20;99.90;;;;;;5052839;28;20625;-87
2021/07/12 10:58:50;;;;;;;2.43;1.60;;;27.20;99.90;;;;;;5064063;28;20632;-88
2021/07/12 11:01:33;;;;;;;2.70;1.50;;;27.30;99.90;;;;;;5061631;28;20619;-87
2021/07/12 11:04:02;;;;;;;2.40;1.63;;;27.60;97.60;;;;;;5061335;28;20656;-88
2021/07/12 11:06:56;;;;;;;1.90;1.80;;;27.60;97.90;;;;;;5059712;28;20665;-87
2021/07/12 11:09:43;;;;;;;2.20;1.57;;;27.50;96.30;;;;;;5060900;28;21191;-87
2021/07/12 11:12:28;;;;;;;2.47;1.53;;;27.60;97.10;;;;;;5061921;28;20635;-87
2021/07/12 11:15:18;;;;;;;2.83;2.00;;;27.60;97.40;;;;;;5062847;28;20661;-88
2021/07/12 11:17:49;;;;;;;1.90;1.30;;;28.00;99.30;;;;;;5061577;28;20621;-88
2021/07/12 11:20:17;;;;;;;1.60;1.20;;;28.10;96.70;;;;;;5064264;28;20629;-87
2021/07/12 11:22:55;;;;;;;3.20;1.60;;;28.00;96.00;;;;;;5060271;28;20727;-88
2021/07/12 11:25:39;;;;;;;1.50;1.40;;;28.30;97.40;;;;;;5064562;28;20625;-86
2021/07/12 11:28:11;;;;;;;1.30;1.20;;;28.50;94.20;;;;;;5063906;28;20758;-88
2021/07/12 11:30:38;;;;;;;1.80;1.70;;;28.80;93.00;;;;;;5065289;28;20632;-88
2021/07/12 11:33:05;;;;;;;1.60;1.50;;;28.70;93.80;;;;;;5065651;28;20629;-88
2021/07/12 11:35:34;;;;;;;2.57;1.50;;;29.20;93.80;;;;;;5065362;28;20940;-86
2021/07/12 11:38:02;;;;;;;1.77;1.67;;;29.50;91.50;;;;;;5063099;28;20640;-86
2021/07/12 11:40:29;;;;;;;1.50;1.40;;;29.50;91.50;;;;;;5064201;28;20622;-86
2021/07/12 11:42:56;;;;;;;2.23;1.50;;;29.30;90.90;;;;;;5063379;28;21213;-86
2021/07/12 11:45:24;;;;;;;1.50;1.40;;;29.30;90.40;;;;;;5062577;28;20978;-88
2021/07/12 11:47:55;;;;;;;1.93;1.40;;;29.30;92.10;;;;;;5061547;28;20703;-88
2021/07/12 11:50:23;;;;;;;1.50;1.40;;;29.30;92.10;;;;;;5063827;28;20997;-88
2021/07/12 11:52:54;;;;;;;1.50;1.40;;;29.20;91.90;;;;;;5063763;28;20621;-88
2021/07/12 11:55:22;;;;;;;1.53;1.40;;;29.80;91.60;;;;;;5062741;28;20632;-88
2021/07/12 11:57:52;;;;;;;2.50;1.50;;;30.00;90.90;;;;;;5064201;28;20645;-86
2021/07/12 12:00:23;;;;;;;2.07;1.40;;;30.00;89.70;;;;;;5062841;28;20651;-86
2021/07/12 12:02:57;;;;;;;1.40;1.30;;;30.30;90.50;;;;;;5059181;28;20636;-86
2021/07/12 12:05:24;;;;;;;1.70;1.40;;;30.00;90.30;;;;;;5060467;28;20679;-86
2021/07/12 12:07:57;;;;;;;2.30;1.67;;;29.70;91.60;;;;;;5063103;28;20640;-88
2021/07/12 12:10:26;;;;;;;1.60;1.40;;;29.40;90.90;;;;;;5063319;28;20628;-88
2021/07/12 12:12:56;;;;;;;2.10;1.27;;;29.30;92.10;;;;;;5063724;28;20625;-88
2021/07/12 12:15:25;;;;;;;1.63;1.53;;;29.70;92.20;;;;;;5065101;28;20635;-88
2021/07/12 12:17:55;;;;;;;1.90;1.60;;;29.70;90.20;;;;;;5062261;28;20625;-88
2021/07/12 12:20:24;;;;;;;2.00;1.83;;;30.00;90.10;;;;;;5059897;28;20629;-88
2021/07/12 12:23:15;;;;;;;1.73;1.40;;;30.60;91.50;;;;;;5058214;28;20620;-89
2021/07/12 12:25:51;;;;;;;1.70;1.53;;;30.70;84.20;;;;;;5059744;28;21174;-86
2021/07/12 12:28:28;;;;;;;1.67;1.43;;;30.90;83.80;;;;;;5061127;28;21094;-86
2021/07/12 12:30:56;;;;;;;1.80;1.70;;;31.20;87.90;;;;;;5057287;28;20735;-86
2021/07/12 12:33:28;;;;;;;1.67;1.33;;;31.20;84.40;;;;;;5063491;28;21278;-89
2021/07/12 12:36:00;;;;;;;1.80;1.70;;;31.00;86.70;;;;;;5063546;28;20617;-86
2021/07/12 12:38:29;;;;;;;2.40;1.80;;;31.80;82.60;;;;;;5059441;28;21222;-87
2021/07/12 12:41:03;;;;;;;1.80;1.63;;;32.00;84.20;;;;;;5062535;28;21212;-87
2021/07/12 12:43:30;;;;;;;3.90;1.40;;;32.30;77.40;;;;;;5062976;28;20664;-87
2021/07/12 12:46:00;;;;;;;6.97;1.97;;;31.40;81.60;;;;;;5062953;28;20640;-87
2021/07/12 12:48:36;;;;;;;3.00;2.77;;;31.80;83.80;;;;;;5059321;28;20625;-87
2021/07/12 12:51:26;;;;;;;1.60;1.50;;;32.10;79.20;;;;;;5063091;28;20621;-87
2021/07/12 12:54:16;;;;;;;2.20;1.70;;;32.30;82.60;;;;;;5060319;28;20652;-87
2021/07/12 12:56:48;;;;;;;1.90;1.80;;;32.80;80.10;;;;;;5062814;28;20652;-89
2021/07/12 12:59:17;;;;;;;2.23;1.77;;;33.30;80.10;;;;;;5063205;28;20985;-87